Time;durP1;ratioP1;P1;durP2;ratioP2;P2;SDS_P1;SDS_P2;PMS_P1;PMS_P2;Temp;Humidity;BMP_temperature;BMP_pressure;BME280_temperature;BME280_humidity;BME280_pressure;Samples;Min_cycle;Max_cycle;Signal;HPM_P1;HPM_P2
2023/06/09 00:00:30;;;;;;;8.83;8.17;;;27.00;59.10;;;;;;4973303;28;20436;-69
2023/06/09 00:02:57;;;;;;;9.80;8.93;;;27.00;59.20;;;;;;4957039;28;21051;-69
2023/06/09 00:05:25;;;;;;;9.20;8.53;;;27.00;59.30;;;;;;4972822;28;20998;-69
2023/06/09 00:07:53;;;;;;;9.13;8.30;;;27.00;59.30;;;;;;4974442;28;20441;-69
2023/06/09 00:10:22;;;;;;;8.97;8.27;;;27.00;59.30;;;;;;4973014;28;20399;-69
2023/06/09 00:12:48;;;;;;;9.13;8.43;;;27.00;59.40;;;;;;4973191;28;20809;-69
2023/06/09 00:15:15;;;;;;;8.10;7.50;;;27.00;59.40;;;;;;4972517;28;20536;-69
2023/06/09 00:17:41;;;;;;;9.27;8.43;;;26.90;59.40;;;;;;4972602;28;20438;-69
2023/06/09 00:20:14;;;;;;;8.57;7.87;;;26.90;59.40;;;;;;4972951;28;20461;-69
2023/06/09 00:22:45;;;;;;;9.00;8.40;;;26.90;59.50;;;;;;4972883;28;20881;-69
2023/06/09 00:25:15;;;;;;;9.10;8.43;;;26.90;59.60;;;;;;4956414;28;20461;-69
2023/06/09 00:27:44;;;;;;;8.80;8.20;;;26.90;59.60;;;;;;4972703;28;20402;-69
2023/06/09 00:30:15;;;;;;;8.80;8.10;;;26.80;59.60;;;;;;4972578;28;20430;-69
2023/06/09 00:32:44;;;;;;;7.70;7.20;;;26.80;59.60;;;;;;4972003;28;20538;-69
2023/06/09 00:35:10;;;;;;;9.17;8.47;;;26.80;59.70;;;;;;4972149;28;20966;-69
2023/06/09 00:37:46;;;;;;;8.00;7.30;;;26.80;59.70;;;;;;4972688;28;20461;-69
2023/06/09 00:40:15;;;;;;;8.90;8.20;;;26.80;59.70;;;;;;4956497;28;20433;-69
2023/06/09 00:42:41;;;;;;;10.50;8.30;;;26.80;59.80;;;;;;4972054;28;20445;-69
2023/06/09 00:45:10;;;;;;;8.33;7.80;;;26.70;59.70;;;;;;4972628;28;20461;-69
2023/06/09 00:47:36;;;;;;;8.57;7.97;;;26.70;59.80;;;;;;4973028;28;20533;-69
2023/06/09 00:50:04;;;;;;;9.97;9.17;;;26.70;59.80;;;;;;4956388;28;20431;-69
2023/06/09 00:52:30;;;;;;;8.63;8.03;;;26.70;59.80;;;;;;4956438;28;20524;-69
2023/06/09 00:54:57;;;;;;;8.80;8.10;;;26.70;59.90;;;;;;4956201;28;20454;-69
2023/06/09 00:57:23;;;;;;;8.37;7.87;;;26.60;59.80;;;;;;4973416;28;20432;-69
2023/06/09 00:59:52;;;;;;;8.90;8.33;;;26.60;59.90;;;;;;4940625;28;20935;-69
2023/06/09 01:02:21;;;;;;;8.93;8.23;;;26.60;59.90;;;;;;4972116;28;20453;-69
2023/06/09 01:04:54;;;;;;;8.80;7.97;;;26.60;59.90;;;;;;4971935;28;20511;-69
2023/06/09 01:07:20;;;;;;;9.23;8.53;;;26.60;59.90;;;;;;4973290;28;20423;-69
2023/06/09 01:10:06;;;;;;;8.57;7.87;;;26.60;60.00;;;;;;4973477;28;20485;-69
2023/06/09 01:13:04;;;;;;;9.00;8.13;;;26.60;60.00;;;;;;4972133;28;20434;-69
2023/06/09 01:15:41;;;;;;;8.63;7.93;;;26.60;60.10;;;;;;4972340;28;20458;-69
2023/06/09 01:18:13;;;;;;;8.20;7.60;;;26.50;60.10;;;;;;4956190;28;20802;-69
2023/06/09 01:20:50;;;;;;;8.43;7.83;;;26.50;60.10;;;;;;4972287;28;20951;-69
2023/06/09 01:23:37;;;;;;;9.43;8.73;;;26.50;60.10;;;;;;4955538;28;20504;-69
2023/06/09 01:26:03;;;;;;;8.47;7.87;;;26.40;60.10;;;;;;4960904;28;20787;-69
2023/06/09 01:28:30;;;;;;;8.30;7.70;;;26.40;60.20;;;;;;4972098;28;20916;-69
2023/06/09 01:30:57;;;;;;;8.77;8.07;;;26.40;60.20;;;;;;4957272;28;20415;-69
2023/06/09 01:33:27;;;;;;;8.77;8.17;;;26.40;60.30;;;;;;4955188;28;20403;-69
2023/06/09 01:35:54;;;;;;;8.90;8.30;;;26.40;60.30;;;;;;4972058;28;20484;-69
2023/06/09 01:38:27;;;;;;;8.47;7.77;;;26.40;60.40;;;;;;4971851;28;20450;-69
2023/06/09 01:40:53;;;;;;;10.17;9.27;;;26.40;60.50;;;;;;4942600;29;20430;-69
2023/06/09 01:43:23;;;;;;;9.90;9.07;;;26.30;60.40;;;;;;4936579;29;20471;-69
2023/06/09 01:45:49;;;;;;;8.23;7.73;;;26.30;60.50;;;;;;4935331;28;20461;-69
2023/06/09 01:48:24;;;;;;;9.70;8.90;;;26.30;60.50;;;;;;4972842;28;20437;-69
2023/06/09 01:50:56;;;;;;;9.50;8.70;;;26.30;60.50;;;;;;4939862;28;20814;-69
2023/06/09 01:53:37;;;;;;;8.50;7.80;;;26.30;60.60;;;;;;4955790;28;20449;-69
2023/06/09 01:56:21;;;;;;;8.53;7.93;;;26.20;60.50;;;;;;4975195;28;20445;-69
2023/06/09 01:58:51;;;;;;;9.20;8.33;;;26.20;60.50;;;;;;4975387;28;20476;-69
2023/06/09 02:01:21;;;;;;;8.87;8.27;;;26.20;60.60;;;;;;4943453;28;20497;-69
2023/06/09 02:03:51;;;;;;;8.47;7.80;;;26.20;60.60;;;;;;4925429;28;20976;-69
2023/06/09 02:06:19;;;;;;;10.03;9.33;;;26.20;60.70;;;;;;4940417;29;20457;-69
2023/06/09 02:08:45;;;;;;;9.37;7.93;;;26.20;60.70;;;;;;4967478;28;20418;-69
2023/06/09 02:11:21;;;;;;;8.00;7.40;;;26.10;60.70;;;;;;4960328;28;20481;-70
2023/06/09 02:13:56;;;;;;;9.10;8.40;;;26.10;60.70;;;;;;4958948;28;20518;-69
2023/06/09 02:16:24;;;;;;;8.50;7.90;;;26.10;60.80;;;;;;4973681;28;20973;-69
2023/06/09 02:18:51;;;;;;;9.00;8.20;;;26.10;60.80;;;;;;4991276;28;20459;-69
2023/06/09 02:21:20;;;;;;;9.67;8.70;;;26.10;60.80;;;;;;4959241;28;20434;-69
2023/06/09 02:23:48;;;;;;;9.67;9.07;;;26.10;60.90;;;;;;4958861;28;20462;-69
2023/06/09 02:26:15;;;;;;;9.57;8.87;;;26.10;60.90;;;;;;4959077;28;20424;-69
2023/06/09 02:28:47;;;;;;;10.03;9.30;;;26.00;60.80;;;;;;4974795;28;20424;-69
2023/06/09 02:31:13;;;;;;;9.30;8.60;;;26.00;60.90;;;;;;4976077;28;20763;-69
2023/06/09 02:33:39;;;;;;;9.60;8.90;;;26.00;61.00;;;;;;4974871;28;20422;-69
2023/06/09 02:36:07;;;;;;;8.90;8.20;;;26.00;61.00;;;;;;4958675;28;20210;-69
2023/06/09 02:38:40;;;;;;;9.47;8.77;;;26.00;61.00;;;;;;4974683;28;20469;-69
2023/06/09 02:41:08;;;;;;;9.13;8.47;;;25.90;60.90;;;;;;4958800;28;20429;-69
2023/06/09 02:43:37;;;;;;;9.83;9.10;;;25.90;61.00;;;;;;4958318;28;20552;-69
2023/06/09 02:46:04;;;;;;;8.97;8.37;;;25.90;61.10;;;;;;4974489;28;20453;-69
2023/06/09 02:48:30;;;;;;;9.70;8.90;;;25.90;61.10;;;;;;4958672;28;20553;-69
2023/06/09 02:50:56;;;;;;;10.27;9.23;;;25.90;61.00;;;;;;4958623;28;20417;-69
2023/06/09 02:53:24;;;;;;;9.60;8.53;;;25.90;61.10;;;;;;4958465;28;20410;-69
2023/06/09 02:55:50;;;;;;;9.50;8.70;;;25.90;61.10;;;;;;4974403;28;20430;-69
2023/06/09 02:58:25;;;;;;;9.83;9.10;;;25.90;61.20;;;;;;4958304;28;20457;-69
2023/06/09 03:00:55;;;;;;;10.40;9.50;;;25.80;61.20;;;;;;4958319;28;20458;-69
2023/06/09 03:03:23;;;;;;;10.10;9.33;;;25.80;61.20;;;;;;4958000;28;20485;-69
2023/06/09 03:05:49;;;;;;;9.10;8.50;;;25.80;61.20;;;;;;4957218;28;20445;-69
2023/06/09 03:08:18;;;;;;;10.13;9.40;;;25.80;61.20;;;;;;4942454;28;20457;-69
2023/06/09 03:10:45;;;;;;;10.13;9.20;;;25.70;61.40;;;;;;4958425;28;20414;-68
2023/06/09 03:13:16;;;;;;;9.70;9.07;;;25.70;61.30;;;;;;4974240;28;20413;-69
2023/06/09 03:15:47;;;;;;;9.90;9.10;;;25.70;61.40;;;;;;4958774;28;20445;-69
2023/06/09 03:18:15;;;;;;;8.60;7.90;;;25.70;61.50;;;;;;4957658;28;20982;-69
2023/06/09 03:20:43;;;;;;;10.13;9.33;;;25.70;61.50;;;;;;4957741;28;20517;-69
2023/06/09 03:23:11;;;;;;;9.33;8.73;;;25.70;61.50;;;;;;4973889;28;20446;-69
2023/06/09 03:25:39;;;;;;;9.70;9.00;;;25.60;61.50;;;;;;4974087;28;20439;-69
2023/06/09 03:28:05;;;;;;;9.90;9.20;;;25.70;61.60;;;;;;4973869;28;20402;-69
2023/06/09 03:30:34;;;;;;;9.63;8.83;;;25.60;61.60;;;;;;4973771;28;20824;-69
2023/06/09 03:33:01;;;;;;;9.30;8.60;;;25.60;61.60;;;;;;4973538;28;20524;-69
2023/06/09 03:35:29;;;;;;;9.97;9.10;;;25.60;61.60;;;;;;4973601;28;20441;-69
2023/06/09 03:37:55;;;;;;;10.00;9.20;;;25.60;61.70;;;;;;4954939;28;20399;-69
2023/06/09 03:40:21;;;;;;;9.33;8.60;;;25.60;61.80;;;;;;4973541;28;20414;-69
2023/06/09 03:42:50;;;;;;;9.97;9.20;;;25.50;61.70;;;;;;4957694;28;20221;-69
2023/06/09 03:45:16;;;;;;;10.10;9.30;;;25.50;61.70;;;;;;4957555;28;20452;-69
2023/06/09 03:47:43;;;;;;;10.20;9.50;;;25.50;61.80;;;;;;4956837;28;20433;-69
2023/06/09 03:50:16;;;;;;;10.47;9.77;;;25.50;61.90;;;;;;4957715;28;20430;-69
2023/06/09 03:52:45;;;;;;;9.80;9.00;;;25.50;62.00;;;;;;4957496;28;20426;-69
2023/06/09 03:55:12;;;;;;;10.17;9.47;;;25.40;61.80;;;;;;4973024;28;20454;-69
2023/06/09 03:57:38;;;;;;;10.60;9.70;;;25.40;61.90;;;;;;4968918;28;20445;-69
2023/06/09 04:00:08;;;;;;;10.10;9.30;;;25.40;62.00;;;;;;4973394;28;20446;-69
2023/06/09 04:02:44;;;;;;;10.57;9.67;;;25.40;62.20;;;;;;4974030;28;20538;-69
2023/06/09 04:05:12;;;;;;;11.30;10.40;;;25.40;62.10;;;;;;4972730;28;20468;-69
2023/06/09 04:07:42;;;;;;;9.40;8.60;;;25.40;62.20;;;;;;4957062;28;20845;-69
2023/06/09 04:10:13;;;;;;;9.77;9.07;;;25.40;62.30;;;;;;4973388;28;20522;-69
2023/06/09 04:12:42;;;;;;;10.73;9.90;;;25.40;62.30;;;;;;4957038;28;20418;-69
2023/06/09 04:15:09;;;;;;;10.43;9.60;;;25.30;62.30;;;;;;4956668;28;20460;-69
2023/06/09 04:17:37;;;;;;;10.47;9.63;;;25.30;62.40;;;;;;4954147;28;21086;-69
2023/06/09 04:20:08;;;;;;;9.33;8.63;;;25.30;62.50;;;;;;4953574;29;20498;-69
2023/06/09 04:22:46;;;;;;;9.40;8.60;;;25.30;62.60;;;;;;4938206;28;20462;-69
2023/06/09 04:25:15;;;;;;;9.60;8.77;;;25.30;62.60;;;;;;4962040;28;20842;-70
2023/06/09 04:27:42;;;;;;;9.87;9.07;;;25.20;62.60;;;;;;4942195;29;20421;-70
2023/06/09 04:30:10;;;;;;;9.83;9.10;;;25.20;62.60;;;;;;4950450;28;20465;-70
2023/06/09 04:32:36;;;;;;;9.33;8.43;;;25.20;62.80;;;;;;4947742;29;20443;-70
2023/06/09 04:35:03;;;;;;;9.80;9.00;;;25.20;62.80;;;;;;4938872;28;20458;-69
2023/06/09 04:37:32;;;;;;;10.00;9.10;;;25.20;62.90;;;;;;4972581;28;20463;-69
2023/06/09 04:39:59;;;;;;;9.83;9.03;;;25.20;63.00;;;;;;4956313;28;20831;-69
2023/06/09 04:42:24;;;;;;;10.63;9.70;;;25.20;63.00;;;;;;4956542;28;20449;-69
2023/06/09 04:44:53;;;;;;;10.30;9.60;;;25.20;63.10;;;;;;4972629;28;20445;-69
2023/06/09 04:47:29;;;;;;;10.53;9.70;;;25.20;63.30;;;;;;4956732;28;20463;-69
2023/06/09 04:49:57;;;;;;;10.63;9.73;;;25.10;63.20;;;;;;4972566;28;20473;-69
2023/06/09 04:52:26;;;;;;;10.13;9.33;;;25.10;63.30;;;;;;4956423;28;20427;-69
2023/06/09 04:54:52;;;;;;;9.47;8.73;;;25.10;63.40;;;;;;4940272;28;20446;-69
2023/06/09 04:57:21;;;;;;;9.80;9.00;;;25.10;63.50;;;;;;4972302;28;20533;-69
2023/06/09 04:59:46;;;;;;;11.60;10.60;;;25.10;63.50;;;;;;4956093;28;20430;-69
2023/06/09 05:02:18;;;;;;;10.70;9.70;;;25.10;63.70;;;;;;4956782;28;20550;-70
2023/06/09 05:04:47;;;;;;;9.33;8.53;;;25.10;63.70;;;;;;4972032;28;21010;-69
2023/06/09 05:07:14;;;;;;;10.67;9.87;;;25.00;63.70;;;;;;4956173;28;20414;-69
2023/06/09 05:09:44;;;;;;;10.50;9.70;;;25.00;63.80;;;;;;4972333;28;20406;-69
2023/06/09 05:12:15;;;;;;;10.47;9.70;;;25.00;63.90;;;;;;4972109;28;20431;-69
2023/06/09 05:14:46;;;;;;;11.80;10.90;;;25.00;63.90;;;;;;4955897;28;20496;-69
2023/06/09 05:17:13;;;;;;;9.40;8.70;;;25.00;64.10;;;;;;4971632;28;20476;-69
2023/06/09 05:19:39;;;;;;;11.00;10.10;;;25.00;64.10;;;;;;4988223;28;20456;-68
2023/06/09 05:22:07;;;;;;;10.43;9.73;;;25.00;64.10;;;;;;4971913;28;20771;-68
2023/06/09 05:24:33;;;;;;;9.73;9.03;;;25.00;64.30;;;;;;4973135;28;20446;-67
2023/06/09 05:27:00;;;;;;;10.83;10.03;;;25.00;64.20;;;;;;4971500;28;20438;-69
2023/06/09 05:29:28;;;;;;;9.80;9.10;;;25.00;64.40;;;;;;4973711;28;20414;-68
2023/06/09 05:31:59;;;;;;;10.00;9.30;;;25.00;64.40;;;;;;4957713;28;20922;-68
2023/06/09 05:34:27;;;;;;;10.97;9.97;;;25.00;64.30;;;;;;4975958;28;20564;-68
2023/06/09 05:36:53;;;;;;;10.93;10.00;;;25.00;64.30;;;;;;4946316;28;20441;-67
2023/06/09 05:39:19;;;;;;;10.87;10.07;;;24.90;64.30;;;;;;4975451;28;20935;-67
2023/06/09 05:41:45;;;;;;;10.50;9.60;;;24.90;64.30;;;;;;4975762;28;20460;-67
2023/06/09 05:44:17;;;;;;;11.90;10.50;;;24.90;64.50;;;;;;4959304;28;20516;-68
2023/06/09 05:46:43;;;;;;;10.53;9.63;;;24.90;64.50;;;;;;4974245;28;20521;-68
2023/06/09 05:49:11;;;;;;;11.00;10.10;;;24.90;64.60;;;;;;4975928;28;20436;-67
2023/06/09 05:51:40;;;;;;;11.30;10.40;;;24.90;64.60;;;;;;4974992;28;20422;-68
2023/06/09 05:54:10;;;;;;;11.20;10.20;;;24.90;64.70;;;;;;4976808;28;20469;-68
2023/06/09 05:56:37;;;;;;;10.00;9.30;;;24.90;64.80;;;;;;4976264;28;20954;-68
2023/06/09 05:59:06;;;;;;;10.10;9.30;;;24.90;64.90;;;;;;4975458;28;20628;-68
2023/06/09 06:01:32;;;;;;;10.37;9.47;;;24.90;64.90;;;;;;4972203;28;20430;-69
2023/06/09 06:03:59;;;;;;;10.43;9.63;;;24.90;64.90;;;;;;4965102;28;20463;-69
2023/06/09 06:06:27;;;;;;;10.63;9.80;;;24.90;65.80;;;;;;4974551;28;20458;-69
2023/06/09 06:08:56;;;;;;;11.47;10.47;;;24.90;64.90;;;;;;4975075;28;20473;-69
2023/06/09 06:11:25;;;;;;;10.10;9.20;;;24.90;64.90;;;;;;4961825;28;20420;-69
2023/06/09 06:13:51;;;;;;;9.50;8.80;;;24.90;64.80;;;;;;4959076;28;20426;-68
2023/06/09 06:16:17;;;;;;;10.60;9.70;;;24.90;64.70;;;;;;4975117;28;20493;-69
2023/06/09 06:18:43;;;;;;;11.40;10.43;;;24.90;64.80;;;;;;4975293;28;20950;-69
2023/06/09 06:21:11;;;;;;;10.50;9.70;;;24.90;64.90;;;;;;4966463;28;20174;-69
2023/06/09 06:23:37;;;;;;;11.17;10.07;;;24.90;65.00;;;;;;4945374;28;20553;-68
2023/06/09 06:26:05;;;;;;;11.30;10.50;;;24.80;65.00;;;;;;4974054;28;20472;-68
2023/06/09 06:28:34;;;;;;;10.47;9.63;;;24.90;65.10;;;;;;4974553;28;20417;-69
2023/06/09 06:31:00;;;;;;;10.20;9.40;;;24.80;64.90;;;;;;4974601;28;20426;-68
2023/06/09 06:33:30;;;;;;;9.70;9.00;;;24.80;64.90;;;;;;4974430;28;20871;-69
2023/06/09 06:36:01;;;;;;;10.40;9.50;;;24.80;65.00;;;;;;4965723;28;20447;-72
2023/06/09 06:38:27;;;;;;;10.40;9.50;;;24.90;65.10;;;;;;4965327;28;20425;-71
2023/06/09 06:40:53;;;;;;;10.97;10.20;;;24.80;65.00;;;;;;4955241;28;20418;-72
2023/06/09 06:43:23;;;;;;;11.70;10.80;;;24.80;65.00;;;;;;4960804;28;20952;-71
2023/06/09 06:46:15;;;;;;;10.50;9.67;;;24.80;64.90;;;;;;4972013;28;20487;-71
2023/06/09 06:48:46;;;;;;;12.57;11.20;;;24.80;64.70;;;;;;4959746;28;20414;-71
2023/06/09 06:51:13;;;;;;;13.30;11.97;;;24.80;66.50;;;;;;4974833;28;20465;-71
2023/06/09 06:53:41;;;;;;;15.03;11.10;;;24.70;67.90;;;;;;4948074;29;20427;-72
2023/06/09 06:56:09;;;;;;;13.43;11.77;;;24.70;68.80;;;;;;4973936;28;20863;-72
2023/06/09 06:58:35;;;;;;;12.47;11.20;;;24.70;70.60;;;;;;4973425;28;20520;-72
2023/06/09 07:01:04;;;;;;;16.10;11.30;;;24.60;69.00;;;;;;4976236;28;20812;-72
2023/06/09 07:03:33;;;;;;;12.43;11.20;;;24.60;68.70;;;;;;4972705;28;20545;-71
2023/06/09 07:06:01;;;;;;;12.27;11.20;;;24.60;68.70;;;;;;4972881;28;20931;-71
2023/06/09 07:08:32;;;;;;;13.50;12.40;;;24.60;69.00;;;;;;4975323;28;20446;-71
2023/06/09 07:11:01;;;;;;;11.80;10.90;;;24.60;69.00;;;;;;4973845;28;20461;-71
2023/06/09 07:13:31;;;;;;;13.73;11.10;;;24.70;69.90;;;;;;4958267;28;20430;-72
2023/06/09 07:16:00;;;;;;;12.43;11.07;;;24.70;70.10;;;;;;4973373;28;20450;-72
2023/06/09 07:18:29;;;;;;;11.20;10.30;;;24.70;70.80;;;;;;4973884;28;20453;-71
2023/06/09 07:20:58;;;;;;;11.43;10.43;;;24.60;70.00;;;;;;4974993;28;20426;-71
2023/06/09 07:23:24;;;;;;;13.00;11.53;;;24.70;71.00;;;;;;4973526;23;20501;-72
2023/06/09 07:25:52;;;;;;;11.90;10.90;;;24.60;70.40;;;;;;5000453;28;20460;-72
2023/06/09 07:28:18;;;;;;;14.43;11.40;;;24.70;71.80;;;;;;4977017;28;20891;-72
2023/06/09 07:30:44;;;;;;;11.57;10.37;;;24.70;71.70;;;;;;4964692;28;20505;-74
2023/06/09 07:33:13;;;;;;;11.93;10.83;;;24.70;70.70;;;;;;5008916;28;20508;-74
2023/06/09 07:35:42;;;;;;;11.83;10.83;;;24.70;71.40;;;;;;4992680;28;20448;-73
2023/06/09 07:38:09;;;;;;;11.57;10.40;;;24.70;71.30;;;;;;4993123;28;20472;-72
2023/06/09 07:40:35;;;;;;;11.70;10.67;;;24.70;70.90;;;;;;4993825;28;20429;-74
2023/06/09 07:43:01;;;;;;;12.67;10.90;;;24.80;71.30;;;;;;4993414;28;20500;-73
2023/06/09 07:45:33;;;;;;;11.50;10.50;;;24.90;71.70;;;;;;4977706;28;21008;-73
2023/06/09 07:47:59;;;;;;;11.30;10.20;;;24.90;72.40;;;;;;4977356;28;20440;-72
2023/06/09 07:50:25;;;;;;;11.60;10.67;;;24.90;72.10;;;;;;4993790;28;20457;-73
2023/06/09 07:52:51;;;;;;;13.03;10.83;;;24.90;72.10;;;;;;4993702;28;20416;-73
2023/06/09 07:55:21;;;;;;;13.47;11.00;;;25.00;72.30;;;;;;4994202;28;20452;-74
2023/06/09 07:57:47;;;;;;;12.40;10.70;;;25.00;72.80;;;;;;4991497;28;20471;-73
2023/06/09 08:00:16;;;;;;;10.63;9.83;;;25.00;73.00;;;;;;4993231;28;20461;-77
2023/06/09 08:02:42;;;;;;;20.17;12.13;;;25.10;72.20;;;;;;4961906;28;20473;-77
2023/06/09 08:05:12;;;;;;;11.27;10.20;;;25.10;72.60;;;;;;4995216;28;20440;-76
2023/06/09 08:07:40;;;;;;;11.40;9.60;;;25.20;72.30;;;;;;4993851;28;20456;-76
2023/06/09 08:10:07;;;;;;;10.77;9.87;;;25.20;72.70;;;;;;4993932;28;20899;-75
2023/06/09 08:12:37;;;;;;;11.10;10.20;;;25.20;71.80;;;;;;4993847;28;20444;-76
2023/06/09 08:15:06;;;;;;;12.17;11.17;;;25.20;71.30;;;;;;4992939;28;21170;-73
2023/06/09 08:17:33;;;;;;;10.67;9.77;;;25.30;71.10;;;;;;4977257;28;20823;-74
2023/06/09 08:19:59;;;;;;;11.27;10.17;;;25.30;71.10;;;;;;4976475;28;20543;-73
2023/06/09 08:22:28;;;;;;;10.53;9.80;;;25.40;70.70;;;;;;4974427;28;20500;-73
2023/06/09 08:24:55;;;;;;;10.70;9.83;;;25.40;70.60;;;;;;4992246;28;20224;-72
2023/06/09 08:27:23;;;;;;;10.43;9.60;;;25.40;70.40;;;;;;4993930;28;20421;-72
2023/06/09 08:29:51;;;;;;;10.67;9.67;;;25.40;71.50;;;;;;4973829;28;20535;-72
2023/06/09 08:32:22;;;;;;;11.27;10.30;;;25.50;71.30;;;;;;4976306;28;20441;-72
2023/06/09 08:34:48;;;;;;;11.37;10.00;;;25.60;71.50;;;;;;4975412;28;20542;-74
2023/06/09 08:37:17;;;;;;;11.90;10.50;;;25.60;71.50;;;;;;4975633;28;20449;-73
2023/06/09 08:39:43;;;;;;;14.27;11.27;;;25.60;71.90;;;;;;4976965;28;20421;-72
2023/06/09 08:42:20;;;;;;;12.80;11.07;;;25.70;72.30;;;;;;4992585;28;20915;-72
2023/06/09 08:44:49;;;;;;;10.97;10.07;;;25.70;72.10;;;;;;4974979;28;20480;-72
2023/06/09 08:47:20;;;;;;;11.10;10.20;;;25.80;71.70;;;;;;4988842;28;20813;-72
2023/06/09 08:49:48;;;;;;;12.03;10.77;;;25.80;71.10;;;;;;4984118;28;20429;-72
2023/06/09 08:52:15;;;;;;;10.60;9.80;;;25.90;70.30;;;;;;4980173;28;20931;-72
2023/06/09 08:54:42;;;;;;;11.00;10.00;;;25.90;69.70;;;;;;4972064;28;20977;-73
2023/06/09 08:57:09;;;;;;;9.80;9.10;;;26.00;69.10;;;;;;4986636;28;20446;-75
2023/06/09 08:59:37;;;;;;;11.70;9.73;;;26.00;69.00;;;;;;4992020;28;20453;-74
2023/06/09 09:02:06;;;;;;;9.90;9.10;;;26.10;68.90;;;;;;4976800;28;20472;-72
2023/06/09 09:04:32;;;;;;;11.23;10.20;;;26.20;69.00;;;;;;4993725;28;20995;-72
2023/06/09 09:06:58;;;;;;;10.20;9.50;;;26.20;68.80;;;;;;4992707;28;20513;-72
2023/06/09 09:09:24;;;;;;;10.17;9.47;;;26.30;68.90;;;;;;4975666;28;20158;-72
2023/06/09 09:11:58;;;;;;;298.57;29.13;;;26.40;69.90;;;;;;4973356;28;20417;-72
2023/06/09 09:14:27;;;;;;;307.10;29.80;;;26.50;70.00;;;;;;4989304;28;20456;-72
2023/06/09 09:17:06;;;;;;;101.10;15.90;;;26.50;69.50;;;;;;4994100;28;20405;-72
2023/06/09 09:19:41;;;;;;;24.03;10.57;;;26.50;68.20;;;;;;4965190;28;20444;-72
2023/06/09 09:22:08;;;;;;;11.50;10.40;;;26.60;67.60;;;;;;4973271;28;21004;-72
2023/06/09 09:24:35;;;;;;;17.00;10.20;;;26.60;67.70;;;;;;4973094;28;20485;-72
2023/06/09 09:27:05;;;;;;;11.13;10.13;;;26.70;67.70;;;;;;4973110;28;20434;-72
2023/06/09 09:29:42;;;;;;;10.70;9.70;;;26.70;67.30;;;;;;4973199;28;20437;-72
2023/06/09 09:32:13;;;;;;;10.23;9.37;;;26.80;66.10;;;;;;4985538;28;20484;-72
2023/06/09 09:34:45;;;;;;;9.50;8.80;;;26.90;64.10;;;;;;4992578;28;20444;-72
2023/06/09 09:37:15;;;;;;;10.03;9.13;;;26.90;62.50;;;;;;5001689;28;20444;-73
2023/06/09 09:39:52;;;;;;;8.90;8.30;;;26.90;61.90;;;;;;4992459;28;20519;-71
2023/06/09 09:42:20;;;;;;;9.53;8.83;;;27.00;62.00;;;;;;4960500;28;20479;-70
2023/06/09 09:44:50;;;;;;;9.33;8.53;;;27.00;61.70;;;;;;4993429;28;20451;-73
2023/06/09 09:47:19;;;;;;;9.37;8.67;;;27.10;60.40;;;;;;4992727;28;20457;-71
2023/06/09 09:49:52;;;;;;;8.90;8.20;;;27.10;60.20;;;;;;4992080;28;20484;-71
2023/06/09 09:52:35;;;;;;;9.63;9.00;;;27.20;60.20;;;;;;4991085;28;20523;-71
2023/06/09 09:55:08;;;;;;;9.33;8.43;;;27.30;59.50;;;;;;4991260;28;20471;-72
2023/06/09 09:57:35;;;;;;;9.30;8.60;;;27.40;58.90;;;;;;4992319;28;20890;-73
2023/06/09 10:00:11;;;;;;;8.17;7.57;;;27.40;58.80;;;;;;4973665;28;20464;-74
2023/06/09 10:02:43;;;;;;;9.13;8.23;;;27.50;58.50;;;;;;4972770;28;20897;-74
2023/06/09 10:05:10;;;;;;;9.07;8.23;;;27.50;58.10;;;;;;4982552;28;20971;-74
2023/06/09 10:07:40;;;;;;;7.73;7.23;;;27.50;57.80;;;;;;4975997;28;20527;-74
2023/06/09 10:10:09;;;;;;;8.23;7.63;;;27.60;56.80;;;;;;5008547;28;20434;-74
2023/06/09 10:12:39;;;;;;;7.97;7.37;;;27.60;56.50;;;;;;4991754;28;20513;-73
2023/06/09 10:15:08;;;;;;;8.57;7.80;;;27.70;55.90;;;;;;4987878;28;20812;-74
2023/06/09 10:17:36;;;;;;;8.50;7.90;;;27.70;55.90;;;;;;4988201;28;20428;-73
2023/06/09 10:20:06;;;;;;;7.40;6.90;;;27.80;55.40;;;;;;4968349;28;20440;-73
2023/06/09 10:22:36;;;;;;;7.40;6.90;;;27.80;55.20;;;;;;4967981;28;20476;-73
2023/06/09 10:25:04;;;;;;;7.80;7.30;;;27.90;55.00;;;;;;4993558;28;20502;-72
2023/06/09 10:27:33;;;;;;;8.37;7.67;;;28.00;55.10;;;;;;4993796;28;20420;-73
2023/06/09 10:30:04;;;;;;;8.43;7.83;;;28.00;54.40;;;;;;4993578;28;20436;-73
2023/06/09 10:32:35;;;;;;;7.50;7.00;;;28.10;54.30;;;;;;4976687;28;20440;-73
2023/06/09 10:35:06;;;;;;;7.87;7.37;;;28.10;54.00;;;;;;4974664;28;20846;-73
2023/06/09 10:37:33;;;;;;;7.40;6.90;;;28.20;53.40;;;;;;4976704;28;20414;-73
2023/06/09 10:40:04;;;;;;;7.80;7.30;;;28.20;53.30;;;;;;4975589;28;20508;-75
2023/06/09 10:42:55;;;;;;;7.87;7.17;;;28.30;53.00;;;;;;4992313;28;20580;-74
2023/06/09 10:45:24;;;;;;;7.90;7.37;;;28.40;52.80;;;;;;4995116;28;20869;-74
2023/06/09 10:47:52;;;;;;;8.20;7.40;;;28.40;52.40;;;;;;4996284;28;20429;-74
2023/06/09 10:50:26;;;;;;;8.13;7.53;;;28.50;52.70;;;;;;4996259;28;20417;-74
2023/06/09 10:52:54;;;;;;;7.50;6.90;;;28.50;52.70;;;;;;4978961;28;20425;-74
2023/06/09 10:55:24;;;;;;;8.13;7.63;;;28.60;52.90;;;;;;4994907;28;20448;-74
2023/06/09 10:57:55;;;;;;;8.43;7.93;;;28.70;52.30;;;;;;4995022;28;20425;-74
2023/06/09 11:00:25;;;;;;;8.10;7.30;;;28.70;52.20;;;;;;4995092;28;20926;-74
2023/06/09 11:03:06;;;;;;;7.50;7.00;;;28.80;52.10;;;;;;4975871;28;20466;-71
2023/06/09 11:05:42;;;;;;;7.20;6.70;;;28.80;52.20;;;;;;4977534;28;20457;-72
2023/06/09 11:08:11;;;;;;;8.57;8.00;;;28.80;52.30;;;;;;4993042;28;20441;-71
2023/06/09 11:10:37;;;;;;;7.83;7.27;;;28.80;52.70;;;;;;4977642;28;20425;-71
2023/06/09 11:13:41;;;;;;;8.70;8.20;;;28.80;52.90;;;;;;4993560;28;20820;-71
2023/06/09 11:16:10;;;;;;;7.53;7.00;;;28.80;53.20;;;;;;4977527;28;20456;-72
2023/06/09 11:18:41;;;;;;;7.97;7.47;;;28.80;53.60;;;;;;4979491;28;20793;-70
2023/06/09 11:21:11;;;;;;;10.97;7.97;;;28.80;53.80;;;;;;4975399;28;20472;-71
2023/06/09 11:24:07;;;;;;;7.90;7.40;;;28.80;54.10;;;;;;4977282;28;20492;-72
2023/06/09 11:26:34;;;;;;;7.97;7.37;;;28.80;55.00;;;;;;4947319;28;20434;-67
2023/06/09 11:29:00;;;;;;;8.63;8.03;;;28.80;54.60;;;;;;5008006;28;20417;-68
2023/06/09 11:31:29;;;;;;;8.47;7.87;;;28.80;55.10;;;;;;4992230;28;20437;-68
2023/06/09 11:33:58;;;;;;;9.63;9.03;;;28.80;55.10;;;;;;4992471;28;20671;-70
2023/06/09 11:36:27;;;;;;;7.60;7.10;;;28.80;55.20;;;;;;4992440;28;20552;-72
2023/06/09 11:39:03;;;;;;;8.50;8.00;;;28.70;55.40;;;;;;4988506;28;20531;-73
2023/06/09 11:41:30;;;;;;;7.60;7.00;;;28.80;55.60;;;;;;4991438;28;20456;-72
2023/06/09 11:43:58;;;;;;;8.33;7.73;;;28.70;55.60;;;;;;4990865;28;20840;-74
2023/06/09 11:46:24;;;;;;;8.30;7.70;;;28.70;55.70;;;;;;4990789;28;20436;-76
2023/06/09 11:49:03;;;;;;;8.10;7.40;;;28.70;55.80;;;;;;4991859;28;20988;-72
2023/06/09 11:51:50;;;;;;;9.40;8.50;;;28.70;56.00;;;;;;4991733;28;20445;-73
2023/06/09 11:54:15;;;;;;;9.23;8.53;;;28.80;56.20;;;;;;4992144;28;20437;-73
2023/06/09 11:56:42;;;;;;;8.90;8.20;;;28.80;56.30;;;;;;4991910;28;20417;-74
2023/06/09 11:59:10;;;;;;;8.80;8.20;;;28.80;56.40;;;;;;4992086;28;20208;-73
2023/06/09 12:01:42;;;;;;;8.93;8.20;;;28.80;56.50;;;;;;4959907;28;20437;-73
2023/06/09 12:04:08;;;;;;;9.37;8.67;;;28.80;56.50;;;;;;4993662;28;20495;-74
2023/06/09 12:06:36;;;;;;;8.30;7.80;;;28.80;56.50;;;;;;4992770;28;20409;-72
2023/06/09 12:09:21;;;;;;;8.17;7.67;;;28.80;56.50;;;;;;4992107;28;20433;-72
2023/06/09 12:11:56;;;;;;;8.70;8.00;;;28.80;56.40;;;;;;4972488;28;20435;-72
2023/06/09 12:14:22;;;;;;;8.03;7.53;;;28.90;56.50;;;;;;4991174;28;20441;-72
2023/06/09 12:16:50;;;;;;;7.90;7.40;;;28.90;56.50;;;;;;4983121;28;20992;-71
2023/06/09 12:19:19;;;;;;;8.10;7.57;;;28.90;56.50;;;;;;4976098;28;20564;-71
2023/06/09 12:21:47;;;;;;;9.40;8.70;;;28.90;56.50;;;;;;5003310;28;20434;-72
2023/06/09 12:24:13;;;;;;;8.80;8.23;;;28.90;56.50;;;;;;4972169;28;20500;-72
2023/06/09 12:26:49;;;;;;;9.33;8.73;;;28.90;56.70;;;;;;4998301;28;20785;-71
2023/06/09 12:29:16;;;;;;;8.60;8.00;;;29.00;56.60;;;;;;4985462;28;20437;-72
2023/06/09 12:31:46;;;;;;;8.13;7.57;;;29.00;56.60;;;;;;4978074;28;20958;-72
2023/06/09 12:34:31;;;;;;;8.47;7.87;;;29.00;56.50;;;;;;4964754;28;20989;-71
2023/06/09 12:36:57;;;;;;;8.67;7.97;;;29.00;56.50;;;;;;4991721;28;20443;-72
2023/06/09 12:39:28;;;;;;;8.93;8.23;;;29.10;56.40;;;;;;4992236;28;20425;-72
2023/06/09 12:41:54;;;;;;;8.83;8.27;;;29.10;56.40;;;;;;4975645;28;20915;-71
2023/06/09 12:44:24;;;;;;;9.23;8.63;;;29.10;56.40;;;;;;4971547;28;20573;-72
2023/06/09 12:46:57;;;;;;;8.13;7.63;;;29.10;56.30;;;;;;4979421;28;20436;-73
2023/06/09 12:49:34;;;;;;;8.10;7.60;;;29.10;56.20;;;;;;4975805;28;20428;-71
2023/06/09 12:52:01;;;;;;;7.83;7.23;;;29.20;56.10;;;;;;4991624;28;20440;-68